Melbeta, Nebraska
Current Conditions -  °F | °C
As of 3:53 AM on Wednesday 22 Oct 2014 (Local Time) from KBFF Reporting Station
Scattered Clouds Scattered Clouds  
Wind Chill: 53°   Ceiling: Unl
Heat Index: 53°   Visibility: 10mi
Dew Point: 52°   Wind: 5mph
Humidity: 96%   Direction: 330°NNW
Pressure: 29.93"   Gusts: NA
Location:  41.78°N, 103.52°W
Report Text: KBFF 220953Z AUTO 33004KT 10SM FEW060 FEW070 SCT095 12/11 A2993 RMK AO2 RAE41 SLP099 P0003 T01170111 $
Loading
Personal Weather Stations






























Interactive Weather Map
Tropical Storm Tracking
New forecast layout! Learn more

10-Day Weather Forecast

Advertisements
Track Severe Weather on mobile